sensor_id;sensor_type;location;lat;lon;timestamp;pressure;altitude;pressure_sealevel;temperature;humidity
69737;BME280;64476;55.004;73.342;2023-03-16T00:00:23;100783.63;;;-2.92;56.62
69737;BME280;64476;55.004;73.342;2023-03-16T00:03:35;100738.69;;;-3.22;56.69
69737;BME280;64476;55.004;73.342;2023-03-16T00:06:37;100824.53;;;-2.67;56.70
69737;BME280;64476;55.004;73.342;2023-03-16T00:09:39;100819.06;;;-2.61;56.18
69737;BME280;64476;55.004;73.342;2023-03-16T00:12:46;100838.13;;;-2.46;56.07
69737;BME280;64476;55.004;73.342;2023-03-16T00:15:49;100838.00;;;-2.43;55.87
69737;BME280;64476;55.004;73.342;2023-03-16T00:18:51;100766.09;;;-2.84;55.56
69737;BME280;64476;55.004;73.342;2023-03-16T00:21:53;100857.84;;;-2.26;56.02
69737;BME280;64476;55.004;73.342;2023-03-16T00:26:07;100867.78;;;-2.18;54.57
69737;BME280;64476;55.004;73.342;2023-03-16T00:33:29;100883.44;;;-2.04;54.46
69737;BME280;64476;55.004;73.342;2023-03-16T00:37:04;100827.31;;;-2.34;54.39
69737;BME280;64476;55.004;73.342;2023-03-16T00:44:51;100863.81;;;-2.44;54.70
69737;BME280;64476;55.004;73.342;2023-03-16T00:48:01;100845.34;;;-2.92;54.62
69737;BME280;64476;55.004;73.342;2023-03-16T00:51:35;100856.31;;;-2.88;54.99
69737;BME280;64476;55.004;73.342;2023-03-16T00:54:45;100852.78;;;-2.86;54.64
69737;BME280;64476;55.004;73.342;2023-03-16T00:57:47;100897.97;;;-2.60;54.93
69737;BME280;64476;55.004;73.342;2023-03-16T01:00:54;100928.22;;;-2.46;54.63
69737;BME280;64476;55.004;73.342;2023-03-16T01:08:10;100967.47;;;-2.41;54.58
69737;BME280;64476;55.004;73.342;2023-03-16T01:11:16;100950.28;;;-2.40;54.23
69737;BME280;64476;55.004;73.342;2023-03-16T01:14:58;100953.84;;;-2.24;54.54
69737;BME280;64476;55.004;73.342;2023-03-16T01:18:00;100951.44;;;-2.27;54.19
69737;BME280;64476;55.004;73.342;2023-03-16T01:21:04;100946.59;;;-2.35;53.84
69737;BME280;64476;55.004;73.342;2023-03-16T01:24:08;100975.00;;;-2.17;54.23
69737;BME280;64476;55.004;73.342;2023-03-16T01:27:10;100971.03;;;-2.24;53.75
69737;BME280;64476;55.004;73.342;2023-03-16T01:30:20;100931.78;;;-2.48;53.82
69737;BME280;64476;55.004;73.342;2023-03-16T01:33:22;100975.34;;;-2.25;53.44
69737;BME280;64476;55.004;73.342;2023-03-16T01:36:30;101000.03;;;-2.21;53.70
69737;BME280;64476;55.004;73.342;2023-03-16T01:39:39;100986.75;;;-2.31;53.75
69737;BME280;64476;55.004;73.342;2023-03-16T01:42:45;100961.81;;;-2.49;53.39
69737;BME280;64476;55.004;73.342;2023-03-16T01:49:50;101028.91;;;-2.33;53.31
69737;BME280;64476;55.004;73.342;2023-03-16T01:53:27;100982.16;;;-2.63;53.49
69737;BME280;64476;55.004;73.342;2023-03-16T01:56:59;101036.00;;;-2.59;53.33
69737;BME280;64476;55.004;73.342;2023-03-16T02:08:05;101023.56;;;-2.69;53.81
69737;BME280;64476;55.004;73.342;2023-03-16T02:11:23;101032.19;;;-2.70;53.80
69737;BME280;64476;55.004;73.342;2023-03-16T02:14:33;101006.91;;;-2.81;53.57
69737;BME280;64476;55.004;73.342;2023-03-16T02:17:42;101052.06;;;-2.53;53.30
69737;BME280;64476;55.004;73.342;2023-03-16T02:25:17;101016.56;;;-2.66;52.83
69737;BME280;64476;55.004;73.342;2023-03-16T02:28:31;101085.38;;;-2.10;52.75
69737;BME280;64476;55.004;73.342;2023-03-16T02:35:44;101081.72;;;-2.04;52.71
69737;BME280;64476;55.004;73.342;2023-03-16T02:38:51;101075.75;;;-2.04;52.22
69737;BME280;64476;55.004;73.342;2023-03-16T02:41:59;101078.16;;;-2.01;52.11
69737;BME280;64476;55.004;73.342;2023-03-16T02:45:02;101086.47;;;-1.95;52.14
69737;BME280;64476;55.004;73.342;2023-03-16T02:48:13;101048.00;;;-2.18;52.15
69737;BME280;64476;55.004;73.342;2023-03-16T03:04:37;101113.44;;;-1.83;51.80
69737;BME280;64476;55.004;73.342;2023-03-16T03:11:53;101118.03;;;-1.90;51.85
69737;BME280;64476;55.004;73.342;2023-03-16T03:19:26;101008.44;;;-2.57;51.94
69737;BME280;64476;55.004;73.342;2023-03-16T03:22:27;101164.31;;;-1.68;51.46
69737;BME280;64476;55.004;73.342;2023-03-16T03:25:35;101142.47;;;-1.79;51.31
69737;BME280;64476;55.004;73.342;2023-03-16T03:28:48;101112.97;;;-2.12;51.81
69737;BME280;64476;55.004;73.342;2023-03-16T03:31:50;101157.22;;;-1.83;51.49
69737;BME280;64476;55.004;73.342;2023-03-16T03:39:18;101127.16;;;-2.23;51.93
69737;BME280;64476;55.004;73.342;2023-03-16T03:42:20;101155.00;;;-2.11;52.06
69737;BME280;64476;55.004;73.342;2023-03-16T03:45:24;101175.97;;;-2.00;52.26
69737;BME280;64476;55.004;73.342;2023-03-16T03:48:28;101190.28;;;-1.93;52.61
69737;BME280;64476;55.004;73.342;2023-03-16T03:51:32;101198.66;;;-1.88;52.10
69737;BME280;64476;55.004;73.342;2023-03-16T03:54:38;101186.78;;;-1.92;52.09
69737;BME280;64476;55.004;73.342;2023-03-16T03:57:43;101173.66;;;-2.06;52.05
69737;BME280;64476;55.004;73.342;2023-03-16T04:05:12;101104.25;;;-2.50;52.00
69737;BME280;64476;55.004;73.342;2023-03-16T04:08:45;101186.47;;;-2.04;51.96
69737;BME280;64476;55.004;73.342;2023-03-16T04:20:16;101149.06;;;-2.13;51.92
69737;BME280;64476;55.004;73.342;2023-03-16T04:23:29;101037.97;;;-2.86;51.80
69737;BME280;64476;55.004;73.342;2023-03-16T04:26:34;101180.72;;;-1.91;51.50
69737;BME280;64476;55.004;73.342;2023-03-16T04:33:54;101207.25;;;-1.48;50.88
69737;BME280;64476;55.004;73.342;2023-03-16T04:36:58;101228.13;;;-1.34;50.48
69737;BME280;64476;55.004;73.342;2023-03-16T04:40:00;101174.28;;;-1.60;49.98
69737;BME280;64476;55.004;73.342;2023-03-16T04:43:59;101217.72;;;-1.32;50.59
69737;BME280;64476;55.004;73.342;2023-03-16T04:47:02;101237.28;;;-1.07;49.94
69737;BME280;64476;55.004;73.342;2023-03-16T04:50:11;101222.72;;;-1.08;49.43
69737;BME280;64476;55.004;73.342;2023-03-16T04:53:48;101233.16;;;-1.12;49.58
69737;BME280;64476;55.004;73.342;2023-03-16T04:57:09;101243.47;;;-1.12;49.56
69737;BME280;64476;55.004;73.342;2023-03-16T05:00:16;101243.34;;;-1.08;49.15
69737;BME280;64476;55.004;73.342;2023-03-16T05:03:28;101225.56;;;-1.15;49.27
69737;BME280;64476;55.004;73.342;2023-03-16T05:10:46;101230.50;;;-1.29;49.14
69737;BME280;64476;55.004;73.342;2023-03-16T05:14:03;101207.97;;;-1.44;48.92
69737;BME280;64476;55.004;73.342;2023-03-16T05:17:09;101161.66;;;-1.66;48.58
69737;BME280;64476;55.004;73.342;2023-03-16T05:24:24;101189.72;;;-1.40;48.44
69737;BME280;64476;55.004;73.342;2023-03-16T05:31:37;101224.66;;;-1.14;48.18
69737;BME280;64476;55.004;73.342;2023-03-16T05:34:49;101221.44;;;-1.19;47.97
69737;BME280;64476;55.004;73.342;2023-03-16T05:41:40;101288.16;;;-0.72;46.69
69737;BME280;64476;55.004;73.342;2023-03-16T05:44:52;101243.75;;;-0.99;47.13
69737;BME280;64476;55.004;73.342;2023-03-16T05:48:24;101294.50;;;-0.60;46.95
69737;BME280;64476;55.004;73.342;2023-03-16T05:51:40;101264.97;;;-0.73;47.11
69737;BME280;64476;55.004;73.342;2023-03-16T06:03:17;101297.88;;;-0.41;47.10
69737;BME280;64476;55.004;73.342;2023-03-16T06:10:35;101288.06;;;-0.51;47.26
69737;BME280;64476;55.004;73.342;2023-03-16T06:13:38;101258.16;;;-0.74;46.99
69737;BME280;64476;55.004;73.342;2023-03-16T06:16:39;101237.50;;;-0.74;47.13
69737;BME280;64476;55.004;73.342;2023-03-16T06:19:42;101136.63;;;-1.25;46.65
69737;BME280;64476;55.004;73.342;2023-03-16T06:22:47;101177.81;;;-1.04;46.56
69737;BME280;64476;55.004;73.342;2023-03-16T06:25:58;101301.69;;;-0.12;46.58
69737;BME280;64476;55.004;73.342;2023-03-16T06:29:03;101293.72;;;-0.07;46.56
69737;BME280;64476;55.004;73.342;2023-03-16T06:36:20;101288.81;;;0.06;45.96
69737;BME280;64476;55.004;73.342;2023-03-16T06:47:52;101301.91;;;-0.16;46.50
69737;BME280;64476;55.004;73.342;2023-03-16T06:50:59;101281.81;;;-0.28;46.26
69737;BME280;64476;55.004;73.342;2023-03-16T06:54:04;101295.97;;;-0.18;46.13
69737;BME280;64476;55.004;73.342;2023-03-16T06:57:10;101294.91;;;-0.14;46.45
69737;BME280;64476;55.004;73.342;2023-03-16T07:04:04;101304.97;;;-0.08;46.54
69737;BME280;64476;55.004;73.342;2023-03-16T07:07:08;101227.97;;;-0.55;46.11
69737;BME280;64476;55.004;73.342;2023-03-16T07:14:28;101330.28;;;0.03;45.91
69737;BME280;64476;55.004;73.342;2023-03-16T07:17:31;101262.53;;;-0.39;45.84
69737;BME280;64476;55.004;73.342;2023-03-16T07:20:35;101351.16;;;0.17;45.98
69737;BME280;64476;55.004;73.342;2023-03-16T07:23:43;101241.94;;;-0.59;45.25
69737;BME280;64476;55.004;73.342;2023-03-16T07:26:47;101264.59;;;-0.28;45.17
69737;BME280;64476;55.004;73.342;2023-03-16T07:29:58;101276.66;;;-0.28;45.28
69737;BME280;64476;55.004;73.342;2023-03-16T07:33:05;101338.22;;;0.17;45.82
69737;BME280;64476;55.004;73.342;2023-03-16T07:36:08;101282.09;;;-0.16;45.35
69737;BME280;64476;55.004;73.342;2023-03-16T07:39:46;101267.88;;;-0.24;45.02
69737;BME280;64476;55.004;73.342;2023-03-16T07:43:28;101335.88;;;0.13;45.51
69737;BME280;64476;55.004;73.342;2023-03-16T07:46:33;101294.09;;;-0.15;45.91
69737;BME280;64476;55.004;73.342;2023-03-16T07:49:35;101286.09;;;-0.27;45.10
69737;BME280;64476;55.004;73.342;2023-03-16T07:52:37;101314.53;;;-0.10;45.39
69737;BME280;64476;55.004;73.342;2023-03-16T07:55:39;101360.94;;;0.10;45.49
69737;BME280;64476;55.004;73.342;2023-03-16T07:58:52;101389.28;;;0.31;45.60
69737;BME280;64476;55.004;73.342;2023-03-16T08:02:38;101322.22;;;-0.08;45.87
69737;BME280;64476;55.004;73.342;2023-03-16T08:06:14;101386.28;;;0.21;45.52
69737;BME280;64476;55.004;73.342;2023-03-16T08:18:12;101369.31;;;0.16;45.88
69737;BME280;64476;55.004;73.342;2023-03-16T08:21:18;101377.03;;;-0.02;45.42
69737;BME280;64476;55.004;73.342;2023-03-16T08:32:18;101397.84;;;-0.05;46.03
69737;BME280;64476;55.004;73.342;2023-03-16T08:35:21;101411.94;;;0.07;45.63
69737;BME280;64476;55.004;73.342;2023-03-16T08:46:50;101269.66;;;-0.81;45.54
69737;BME280;64476;55.004;73.342;2023-03-16T08:54:21;101408.16;;;0.14;45.87
69737;BME280;64476;55.004;73.342;2023-03-16T08:57:23;101427.03;;;0.33;45.90
69737;BME280;64476;55.004;73.342;2023-03-16T09:00:55;101369.66;;;-0.09;45.22
69737;BME280;64476;55.004;73.342;2023-03-16T09:03:59;101317.84;;;-0.44;45.51
69737;BME280;64476;55.004;73.342;2023-03-16T09:07:01;101284.72;;;-0.72;46.05
69737;BME280;64476;55.004;73.342;2023-03-16T09:10:07;101376.94;;;-0.00;45.32
69737;BME280;64476;55.004;73.342;2023-03-16T09:13:09;101433.47;;;0.44;45.84
69737;BME280;64476;55.004;73.342;2023-03-16T09:16:12;101415.66;;;0.38;45.58
69737;BME280;64476;55.004;73.342;2023-03-16T09:22:54;101436.81;;;0.46;45.04
69737;BME280;64476;55.004;73.342;2023-03-16T09:30:35;101424.78;;;0.45;45.41
69737;BME280;64476;55.004;73.342;2023-03-16T09:33:39;101404.56;;;0.35;45.13
69737;BME280;64476;55.004;73.342;2023-03-16T09:36:41;101434.94;;;0.49;45.28
69737;BME280;64476;55.004;73.342;2023-03-16T09:39:42;101422.28;;;0.43;45.31
69737;BME280;64476;55.004;73.342;2023-03-16T09:46:24;101408.91;;;0.35;45.31
69737;BME280;64476;55.004;73.342;2023-03-16T09:49:35;101449.22;;;0.56;45.21
69737;BME280;64476;55.004;73.342;2023-03-16T10:11:59;101447.72;;;0.16;45.81
69737;BME280;64476;55.004;73.342;2023-03-16T10:23:47;101396.03;;;-0.41;45.62
69737;BME280;64476;55.004;73.342;2023-03-16T11:46:43;101444.22;;;-1.65;47.11
69737;BME280;64476;55.004;73.342;2023-03-16T12:14:50;101497.72;;;-1.48;47.78
69737;BME280;64476;55.004;73.342;2023-03-16T12:18:03;101529.84;;;-1.35;47.99
69737;BME280;64476;55.004;73.342;2023-03-16T12:21:58;101571.09;;;-1.13;48.29
69737;BME280;64476;55.004;73.342;2023-03-16T12:28:33;101563.56;;;-1.18;48.34
69737;BME280;64476;55.004;73.342;2023-03-16T12:31:45;101524.81;;;-1.38;48.65
69737;BME280;64476;55.004;73.342;2023-03-16T12:38:17;101574.81;;;-1.20;48.53
69737;BME280;64476;55.004;73.342;2023-03-16T12:44:46;101560.88;;;-1.15;48.45
69737;BME280;64476;55.004;73.342;2023-03-16T12:51:41;101549.81;;;-1.18;48.41
69737;BME280;64476;55.004;73.342;2023-03-16T12:54:51;101530.22;;;-1.22;48.20
69737;BME280;64476;55.004;73.342;2023-03-16T12:58:00;101530.34;;;-1.25;48.55
69737;BME280;64476;55.004;73.342;2023-03-16T13:01:07;101537.00;;;-1.20;48.31
69737;BME280;64476;55.004;73.342;2023-03-16T13:04:21;101563.38;;;-1.13;48.40
69737;BME280;64476;55.004;73.342;2023-03-16T13:07:26;101523.59;;;-1.51;48.15
69737;BME280;64476;55.004;73.342;2023-03-16T13:10:35;101574.41;;;-1.31;48.98
69737;BME280;64476;55.004;73.342;2023-03-16T13:14:03;101591.03;;;-1.39;48.69
69737;BME280;64476;55.004;73.342;2023-03-16T13:27:58;101549.38;;;-1.98;49.40
69737;BME280;64476;55.004;73.342;2023-03-16T13:31:19;101612.19;;;-1.77;49.65
69737;BME280;64476;55.004;73.342;2023-03-16T13:38:04;101627.94;;;-1.85;49.50
69737;BME280;64476;55.004;73.342;2023-03-16T13:41:10;101578.22;;;-2.12;49.13
69737;BME280;64476;55.004;73.342;2023-03-16T13:44:14;101605.44;;;-2.05;49.51
69737;BME280;64476;55.004;73.342;2023-03-16T13:50:23;101608.28;;;-2.38;50.76
69737;BME280;64476;55.004;73.342;2023-03-16T13:53:30;101574.97;;;-2.69;50.30
69737;BME280;64476;55.004;73.342;2023-03-16T13:56:33;101585.56;;;-2.51;50.03
69737;BME280;64476;55.004;73.342;2023-03-16T13:59:35;101620.56;;;-2.21;50.01
69737;BME280;64476;55.004;73.342;2023-03-16T14:03:17;101640.91;;;-2.13;49.83
69737;BME280;64476;55.004;73.342;2023-03-16T14:10:45;101645.13;;;-2.11;50.28
69737;BME280;64476;55.004;73.342;2023-03-16T14:13:55;101587.81;;;-2.67;50.50
69737;BME280;64476;55.004;73.342;2023-03-16T14:24:29;101600.88;;;-2.73;51.20
69737;BME280;64476;55.004;73.342;2023-03-16T14:30:53;101614.31;;;-2.65;50.92
69737;BME280;64476;55.004;73.342;2023-03-16T14:34:39;101679.53;;;-2.13;50.40
69737;BME280;64476;55.004;73.342;2023-03-16T14:37:41;101596.63;;;-2.49;50.55
69737;BME280;64476;55.004;73.342;2023-03-16T14:40:55;101666.38;;;-2.04;50.35
69737;BME280;64476;55.004;73.342;2023-03-16T14:43:59;101621.16;;;-2.38;50.07
69737;BME280;64476;55.004;73.342;2023-03-16T14:47:03;101689.47;;;-2.01;49.95
69737;BME280;64476;55.004;73.342;2023-03-16T14:53:35;101518.31;;;-3.19;50.58
69737;BME280;64476;55.004;73.342;2023-03-16T14:56:50;101630.81;;;-2.44;50.34
69737;BME280;64476;55.004;73.342;2023-03-16T14:59:57;101687.84;;;-2.05;50.38
69737;BME280;64476;55.004;73.342;2023-03-16T15:03:39;101687.66;;;-1.99;50.41
69737;BME280;64476;55.004;73.342;2023-03-16T15:10:48;101689.72;;;-2.09;50.70
69737;BME280;64476;55.004;73.342;2023-03-16T15:14:21;101659.81;;;-2.39;50.49
69737;BME280;64476;55.004;73.342;2023-03-16T15:17:44;101680.78;;;-2.25;50.72
69737;BME280;64476;55.004;73.342;2023-03-16T15:20:46;101661.44;;;-2.37;50.76
69737;BME280;64476;55.004;73.342;2023-03-16T15:23:50;101686.78;;;-2.24;51.07
69737;BME280;64476;55.004;73.342;2023-03-16T15:26:52;101586.16;;;-2.96;51.09
69737;BME280;64476;55.004;73.342;2023-03-16T15:29:54;101641.84;;;-2.67;50.89
69737;BME280;64476;55.004;73.342;2023-03-16T15:32:56;101690.28;;;-2.53;50.80
69737;BME280;64476;55.004;73.342;2023-03-16T15:36:01;101633.09;;;-2.90;51.54
69737;BME280;64476;55.004;73.342;2023-03-16T15:39:08;101701.91;;;-2.42;51.05
69737;BME280;64476;55.004;73.342;2023-03-16T15:42:16;101669.84;;;-2.58;51.01
69737;BME280;64476;55.004;73.342;2023-03-16T15:45:23;101702.63;;;-2.37;51.25
69737;BME280;64476;55.004;73.342;2023-03-16T15:48:25;101658.22;;;-2.70;50.92
69737;BME280;64476;55.004;73.342;2023-03-16T15:51:28;101669.41;;;-2.71;51.46
69737;BME280;64476;55.004;73.342;2023-03-16T15:54:32;101704.31;;;-2.36;51.04
69737;BME280;64476;55.004;73.342;2023-03-16T15:57:35;101675.84;;;-2.58;51.26
69737;BME280;64476;55.004;73.342;2023-03-16T16:00:37;101681.97;;;-2.62;51.48
69737;BME280;64476;55.004;73.342;2023-03-16T16:03:40;101640.03;;;-2.92;51.51
69737;BME280;64476;55.004;73.342;2023-03-16T16:06:42;101703.88;;;-2.48;51.81
69737;BME280;64476;55.004;73.342;2023-03-16T16:09:44;101680.81;;;-2.53;51.28
69737;BME280;64476;55.004;73.342;2023-03-16T16:12:48;101704.06;;;-2.28;51.62
69737;BME280;64476;55.004;73.342;2023-03-16T16:15:55;101634.91;;;-2.65;50.73
69737;BME280;64476;55.004;73.342;2023-03-16T16:18:57;101706.47;;;-2.23;51.17
69737;BME280;64476;55.004;73.342;2023-03-16T16:21:59;101643.25;;;-2.85;51.32
69737;BME280;64476;55.004;73.342;2023-03-16T16:25:01;101568.47;;;-3.34;51.59
69737;BME280;64476;55.004;73.342;2023-03-16T16:28:24;101685.53;;;-2.66;51.63
69737;BME280;64476;55.004;73.342;2023-03-16T16:31:57;101678.94;;;-2.74;51.48
69737;BME280;64476;55.004;73.342;2023-03-16T16:35:37;101697.72;;;-2.71;51.78
69737;BME280;64476;55.004;73.342;2023-03-16T16:38:47;101672.38;;;-2.85;51.93
69737;BME280;64476;55.004;73.342;2023-03-16T16:41:50;101720.25;;;-2.51;51.84
69737;BME280;64476;55.004;73.342;2023-03-16T16:44:58;101696.19;;;-2.50;51.67
69737;BME280;64476;55.004;73.342;2023-03-16T16:48:42;101659.94;;;-2.70;51.72
69737;BME280;64476;55.004;73.342;2023-03-16T16:51:45;101726.41;;;-2.28;51.56
69737;BME280;64476;55.004;73.342;2023-03-16T16:54:47;101725.50;;;-2.27;51.37
69737;BME280;64476;55.004;73.342;2023-03-16T16:57:54;101732.38;;;-2.28;51.32
69737;BME280;64476;55.004;73.342;2023-03-16T17:00:59;101733.34;;;-2.31;51.65
69737;BME280;64476;55.004;73.342;2023-03-16T17:04:02;101703.88;;;-2.48;51.77
69737;BME280;64476;55.004;73.342;2023-03-16T17:07:05;101733.22;;;-2.27;51.29
69737;BME280;64476;55.004;73.342;2023-03-16T17:10:08;101689.03;;;-2.42;51.13
69737;BME280;64476;55.004;73.342;2023-03-16T17:16:50;101735.47;;;-2.17;51.11
69737;BME280;64476;55.004;73.342;2023-03-16T17:19:58;101747.06;;;-2.03;51.03
69737;BME280;64476;55.004;73.342;2023-03-16T17:23:01;101718.03;;;-2.09;51.06
69737;BME280;64476;55.004;73.342;2023-03-16T17:26:15;101728.22;;;-2.06;51.36
69737;BME280;64476;55.004;73.342;2023-03-16T17:32:40;101738.81;;;-1.88;51.09
69737;BME280;64476;55.004;73.342;2023-03-16T17:35:42;101735.44;;;-1.90;50.61
69737;BME280;64476;55.004;73.342;2023-03-16T17:38:45;101698.06;;;-2.02;50.77
69737;BME280;64476;55.004;73.342;2023-03-16T17:41:58;101711.41;;;-1.91;50.30
69737;BME280;64476;55.004;73.342;2023-03-16T17:45:00;101696.97;;;-1.95;50.03
69737;BME280;64476;55.004;73.342;2023-03-16T17:55:16;101735.53;;;-1.67;49.71
69737;BME280;64476;55.004;73.342;2023-03-16T17:58:27;101646.38;;;-2.22;49.94
69737;BME280;64476;55.004;73.342;2023-03-16T18:01:31;101714.59;;;-1.83;50.26
69737;BME280;64476;55.004;73.342;2023-03-16T18:04:33;101727.84;;;-1.68;49.67
69737;BME280;64476;55.004;73.342;2023-03-16T18:07:41;101737.09;;;-1.63;49.90
69737;BME280;64476;55.004;73.342;2023-03-16T18:11:18;101725.38;;;-1.71;50.48
69737;BME280;64476;55.004;73.342;2023-03-16T18:14:27;101744.91;;;-1.64;50.54
69737;BME280;64476;55.004;73.342;2023-03-16T18:17:35;101570.88;;;-2.74;50.23
69737;BME280;64476;55.004;73.342;2023-03-16T18:20:36;101714.00;;;-1.91;50.22
69737;BME280;64476;55.004;73.342;2023-03-16T18:23:44;101723.09;;;-1.80;50.15
69737;BME280;64476;55.004;73.342;2023-03-16T18:26:52;101726.41;;;-1.77;50.33
69737;BME280;64476;55.004;73.342;2023-03-16T18:29:55;101739.63;;;-1.61;50.32
69737;BME280;64476;55.004;73.342;2023-03-16T18:32:58;101726.13;;;-1.68;50.28
69737;BME280;64476;55.004;73.342;2023-03-16T18:39:17;101751.63;;;-1.60;50.35
69737;BME280;64476;55.004;73.342;2023-03-16T18:42:21;101730.22;;;-1.62;50.05
69737;BME280;64476;55.004;73.342;2023-03-16T18:45:25;101742.00;;;-1.55;49.76
69737;BME280;64476;55.004;73.342;2023-03-16T18:55:15;101695.03;;;-1.88;50.07
69737;BME280;64476;55.004;73.342;2023-03-16T18:58:21;101732.00;;;-1.64;50.40
69737;BME280;64476;55.004;73.342;2023-03-16T19:01:28;101741.06;;;-1.52;50.02
69737;BME280;64476;55.004;73.342;2023-03-16T19:04:37;101745.41;;;-1.54;49.96
69737;BME280;64476;55.004;73.342;2023-03-16T19:07:41;101688.69;;;-1.79;49.82
69737;BME280;64476;55.004;73.342;2023-03-16T19:10:54;101740.22;;;-1.53;49.78
69737;BME280;64476;55.004;73.342;2023-03-16T19:14:01;101670.16;;;-1.89;49.58
69737;BME280;64476;55.004;73.342;2023-03-16T19:17:03;101727.53;;;-1.59;49.42
69737;BME280;64476;55.004;73.342;2023-03-16T19:20:05;101743.91;;;-1.60;49.31
69737;BME280;64476;55.004;73.342;2023-03-16T19:26:34;101695.09;;;-1.90;49.31
69737;BME280;64476;55.004;73.342;2023-03-16T19:29:37;101748.22;;;-1.61;49.18
69737;BME280;64476;55.004;73.342;2023-03-16T19:32:39;101747.41;;;-1.63;49.34
69737;BME280;64476;55.004;73.342;2023-03-16T19:35:41;101734.81;;;-1.72;49.42
69737;BME280;64476;55.004;73.342;2023-03-16T19:38:42;101740.59;;;-1.64;49.32
69737;BME280;64476;55.004;73.342;2023-03-16T19:41:53;101706.06;;;-1.85;49.05
69737;BME280;64476;55.004;73.342;2023-03-16T19:44:56;101726.31;;;-1.74;49.09
69737;BME280;64476;55.004;73.342;2023-03-16T19:48:02;101726.41;;;-1.77;49.12
69737;BME280;64476;55.004;73.342;2023-03-16T19:51:10;101764.44;;;-1.59;48.83
69737;BME280;64476;55.004;73.342;2023-03-16T19:58:02;101715.72;;;-1.91;48.62
69737;BME280;64476;55.004;73.342;2023-03-16T20:01:19;101759.88;;;-1.75;49.03
69737;BME280;64476;55.004;73.342;2023-03-16T20:04:27;101740.56;;;-1.89;48.81
69737;BME280;64476;55.004;73.342;2023-03-16T20:07:28;101748.28;;;-1.89;49.04
69737;BME280;64476;55.004;73.342;2023-03-16T20:10:35;101722.31;;;-2.09;49.47
69737;BME280;64476;55.004;73.342;2023-03-16T20:13:36;101718.47;;;-2.22;49.47
69737;BME280;64476;55.004;73.342;2023-03-16T20:16:38;101703.72;;;-2.44;49.99
69737;BME280;64476;55.004;73.342;2023-03-16T20:19:40;101762.75;;;-2.11;49.57
69737;BME280;64476;55.004;73.342;2023-03-16T20:22:42;101760.56;;;-2.23;49.96
69737;BME280;64476;55.004;73.342;2023-03-16T20:29:28;101777.88;;;-2.28;50.10
69737;BME280;64476;55.004;73.342;2023-03-16T20:32:35;101743.63;;;-2.59;49.88
69737;BME280;64476;55.004;73.342;2023-03-16T20:39:30;101690.13;;;-3.05;50.70
69737;BME280;64476;55.004;73.342;2023-03-16T20:46:51;101753.06;;;-2.87;50.63
69737;BME280;64476;55.004;73.342;2023-03-16T20:52:58;101768.47;;;-2.86;51.20
69737;BME280;64476;55.004;73.342;2023-03-16T20:56:00;101762.88;;;-3.01;51.62
69737;BME280;64476;55.004;73.342;2023-03-16T20:59:01;101733.38;;;-3.19;51.38
69737;BME280;64476;55.004;73.342;2023-03-16T21:02:18;101723.47;;;-3.32;51.66
69737;BME280;64476;55.004;73.342;2023-03-16T21:05:34;101760.59;;;-3.11;51.48
69737;BME280;64476;55.004;73.342;2023-03-16T21:08:36;101774.22;;;-3.09;51.66
69737;BME280;64476;55.004;73.342;2023-03-16T21:11:38;101637.94;;;-3.99;51.58
69737;BME280;64476;55.004;73.342;2023-03-16T21:14:40;101684.38;;;-3.76;51.72
69737;BME280;64476;55.004;73.342;2023-03-16T21:17:42;101750.34;;;-3.43;52.32
69737;BME280;64476;55.004;73.342;2023-03-16T21:20:44;101732.84;;;-3.62;52.13
69737;BME280;64476;55.004;73.342;2023-03-16T21:23:56;101781.06;;;-3.39;51.93
69737;BME280;64476;55.004;73.342;2023-03-16T21:26:59;101773.50;;;-3.45;52.46
69737;BME280;64476;55.004;73.342;2023-03-16T21:30:47;101773.03;;;-3.59;52.44
69737;BME280;64476;55.004;73.342;2023-03-16T21:33:51;101755.28;;;-3.68;52.37
69737;BME280;64476;55.004;73.342;2023-03-16T21:36:54;101758.09;;;-3.78;52.04
69737;BME280;64476;55.004;73.342;2023-03-16T21:39:55;101768.09;;;-3.67;52.33
69737;BME280;64476;55.004;73.342;2023-03-16T21:42:57;101717.66;;;-4.04;52.20
69737;BME280;64476;55.004;73.342;2023-03-16T21:45:59;101694.22;;;-4.26;52.62
69737;BME280;64476;55.004;73.342;2023-03-16T21:49:09;101723.84;;;-4.12;52.67
69737;BME280;64476;55.004;73.342;2023-03-16T21:52:26;101789.75;;;-3.77;52.26
69737;BME280;64476;55.004;73.342;2023-03-16T21:55:34;101753.44;;;-3.97;52.83
69737;BME280;64476;55.004;73.342;2023-03-16T21:58:37;101734.28;;;-4.20;52.75
69737;BME280;64476;55.004;73.342;2023-03-16T22:01:39;101791.94;;;-3.96;52.87
69737;BME280;64476;55.004;73.342;2023-03-16T22:04:41;101722.91;;;-4.45;53.29
69737;BME280;64476;55.004;73.342;2023-03-16T22:07:43;101779.59;;;-4.19;53.23
69737;BME280;64476;55.004;73.342;2023-03-16T22:10:46;101768.72;;;-4.29;53.16
69737;BME280;64476;55.004;73.342;2023-03-16T22:13:48;101794.16;;;-4.19;53.45
69737;BME280;64476;55.004;73.342;2023-03-16T22:16:50;101790.88;;;-4.25;53.44
69737;BME280;64476;55.004;73.342;2023-03-16T22:20:00;101796.78;;;-4.22;53.94
69737;BME280;64476;55.004;73.342;2023-03-16T22:23:02;101798.56;;;-4.25;53.28
69737;BME280;64476;55.004;73.342;2023-03-16T22:26:16;101800.47;;;-4.33;53.11
69737;BME280;64476;55.004;73.342;2023-03-16T22:32:59;101741.56;;;-4.78;52.34
69737;BME280;64476;55.004;73.342;2023-03-16T22:36:13;101826.38;;;-4.43;52.35
69737;BME280;64476;55.004;73.342;2023-03-16T22:39:25;101769.03;;;-4.83;52.60
69737;BME280;64476;55.004;73.342;2023-03-16T22:42:35;101813.97;;;-4.65;53.04
69737;BME280;64476;55.004;73.342;2023-03-16T22:45:38;101836.00;;;-4.55;53.04
69737;BME280;64476;55.004;73.342;2023-03-16T22:48:40;101770.34;;;-5.05;53.27
69737;BME280;64476;55.004;73.342;2023-03-16T22:51:41;101833.84;;;-4.75;53.18
69737;BME280;64476;55.004;73.342;2023-03-16T22:54:44;101773.19;;;-5.19;53.38
69737;BME280;64476;55.004;73.342;2023-03-16T22:57:49;101803.72;;;-5.08;53.17